Time;durP1;ratioP1;P1;durP2;ratioP2;P2;SDS_P1;SDS_P2;PMS_P1;PMS_P2;Temp;Humidity;BMP_temperature;BMP_pressure;BME280_temperature;BME280_humidity;BME280_pressure;Samples;Min_cycle;Max_cycle;Signal;HPM_P1;HPM_P2
2020/12/03 00:01:24;;;;;;;32.63;21.27;;;;;;;1.19;71.13;95069.53;5033949;28;20198;-79
2020/12/03 00:03:53;;;;;;;33.93;22.00;;;;;;;1.23;71.23;95068.31;5017797;28;20230;-79
2020/12/03 00:06:21;;;;;;;34.03;21.83;;;;;;;1.24;71.38;95074.19;5034702;28;20233;-80
2020/12/03 00:08:51;;;;;;;31.53;22.00;;;;;;;1.27;70.96;95077.28;5016724;28;20210;-79
2020/12/03 00:11:18;;;;;;;34.27;22.07;;;;;;;1.30;71.21;95078.75;5014244;28;20214;-79
2020/12/03 00:13:44;;;;;;;32.73;22.10;;;;;;;1.25;71.27;95081.69;5028353;28;20275;-78
2020/12/03 00:16:10;;;;;;;34.07;21.23;;;;;;;1.31;71.26;95077.81;5033946;28;20230;-78
2020/12/03 00:18:37;;;;;;;32.23;21.47;;;;;;;1.30;70.83;95077.03;5017434;28;20198;-79
2020/12/03 00:21:07;;;;;;;32.07;20.90;;;;;;;1.25;71.54;95084.22;5026202;28;20190;-79
2020/12/03 00:23:33;;;;;;;33.97;20.97;;;;;;;1.18;71.80;95085.66;5032932;28;20229;-78
2020/12/03 00:25:59;;;;;;;33.13;21.20;;;;;;;1.15;71.52;95080.06;5013176;28;20227;-78
2020/12/03 00:28:30;;;;;;;34.30;21.20;;;;;;;1.12;71.51;95071.00;5026186;28;20202;-79
2020/12/03 00:30:56;;;;;;;32.13;21.80;;;;;;;1.15;71.22;95080.06;5033466;28;20201;-79
2020/12/03 00:33:22;;;;;;;31.20;20.80;;;;;;;1.19;70.81;95086.47;5022647;28;20218;-80
2020/12/03 00:35:49;;;;;;;32.57;21.83;;;;;;;1.24;70.84;95082.59;5018492;28;20649;-80
2020/12/03 00:38:17;;;;;;;28.77;20.53;;;;;;;1.23;69.90;95081.00;5037354;28;20210;-80
2020/12/03 00:40:43;;;;;;;31.07;21.60;;;;;;;1.25;69.98;95073.28;5034172;28;20202;-78
2020/12/03 00:43:09;;;;;;;30.30;20.93;;;;;;;1.22;69.27;95076.88;5012822;28;20230;-79
2020/12/03 00:45:35;;;;;;;30.60;20.87;;;;;;;1.21;69.32;95069.38;5027984;28;20685;-79
2020/12/03 00:48:01;;;;;;;27.93;21.13;;;;;;;1.07;70.48;95052.84;5026737;28;20206;-78
2020/12/03 00:50:27;;;;;;;32.27;21.53;;;;;;;1.02;70.51;95048.16;5033225;28;20321;-80
2020/12/03 00:52:53;;;;;;;31.80;21.57;;;;;;;1.01;71.20;95054.16;5020547;28;20257;-80
2020/12/03 00:55:20;;;;;;;28.23;21.23;;;;;;;0.98;71.32;95061.22;5013072;28;20689;-79
2020/12/03 00:57:46;;;;;;;31.93;21.63;;;;;;;0.92;71.95;95067.63;5024048;28;20194;-78
2020/12/03 01:00:17;;;;;;;30.40;21.17;;;;;;;0.92;71.88;95069.38;5032445;28;20213;-78
2020/12/03 01:02:43;;;;;;;31.90;20.90;;;;;;;0.90;72.23;95069.50;5013934;28;20210;-79
2020/12/03 01:05:09;;;;;;;33.43;22.17;;;;;;;0.95;72.25;95059.78;5012266;28;20569;-80
2020/12/03 01:07:36;;;;;;;32.20;21.07;;;;;;;0.97;72.39;95067.22;5030332;28;20206;-80
2020/12/03 01:10:04;;;;;;;33.37;21.90;;;;;;;0.98;72.74;95071.34;5021535;28;20205;-80
2020/12/03 01:12:31;;;;;;;31.67;21.60;;;;;;;0.94;73.19;95072.56;5014449;28;20209;-78
2020/12/03 01:14:57;;;;;;;29.53;20.33;;;;;;;0.94;73.52;95064.97;5022406;28;20203;-79
2020/12/03 01:17:23;;;;;;;31.73;21.90;;;;;;;0.96;73.54;95061.34;5032156;28;20199;-80
2020/12/03 01:19:49;;;;;;;32.77;21.90;;;;;;;0.96;73.34;95065.63;5024312;28;20198;-79
2020/12/03 01:22:15;;;;;;;34.17;21.97;;;;;;;0.94;73.83;95064.97;5026152;28;20209;-79
2020/12/03 01:24:42;;;;;;;34.67;22.03;;;;;;;0.92;74.14;95067.63;5025999;28;20218;-79
2020/12/03 01:27:09;;;;;;;33.80;22.33;;;;;;;0.96;73.89;95060.56;5012561;28;20240;-79
2020/12/03 01:29:37;;;;;;;33.70;22.77;;;;;;;0.96;73.85;95048.66;5019886;28;20206;-79
2020/12/03 01:32:03;;;;;;;34.23;22.20;;;;;;;1.01;74.31;95045.75;5026043;28;20609;-78
2020/12/03 01:34:28;;;;;;;34.63;22.67;;;;;;;1.01;73.76;95046.56;5017919;28;20214;-79
2020/12/03 01:36:54;;;;;;;35.53;23.57;;;;;;;0.97;74.44;95041.88;5016976;28;20199;-79
2020/12/03 01:39:21;;;;;;;31.33;21.03;;;;;;;0.98;74.19;95046.00;5018679;28;20573;-80
2020/12/03 01:41:47;;;;;;;37.47;23.67;;;;;;;1.00;74.34;95052.56;5027137;28;20199;-79
2020/12/03 01:44:14;;;;;;;34.67;22.80;;;;;;;1.01;74.39;95050.81;5017642;28;20219;-79
2020/12/03 01:46:42;;;;;;;35.03;22.70;;;;;;;1.00;74.24;95041.63;5016386;28;20229;-80
2020/12/03 01:49:15;;;;;;;34.00;22.17;;;;;;;0.98;74.17;95038.41;5016775;28;20207;-79
2020/12/03 01:51:45;;;;;;;32.93;21.57;;;;;;;0.95;74.24;95033.63;5024048;28;20198;-79
2020/12/03 01:54:13;;;;;;;33.77;22.33;;;;;;;0.96;74.08;95035.22;5022711;28;20219;-79
2020/12/03 01:56:54;;;;;;;35.60;23.40;;;;;;;0.95;74.42;95041.22;5016491;28;20195;-80
2020/12/03 01:59:21;;;;;;;32.93;21.93;;;;;;;0.94;74.32;95037.88;5029502;28;20226;-78
2020/12/03 02:01:48;;;;;;;34.67;21.20;;;;;;;0.90;74.28;95036.53;5035726;28;20202;-79
2020/12/03 02:04:14;;;;;;;36.43;22.10;;;;;;;0.91;74.10;95035.63;5035562;28;20529;-79
2020/12/03 02:06:41;;;;;;;30.43;20.73;;;;;;;0.96;73.78;95037.75;5034973;28;20225;-80
2020/12/03 02:09:11;;;;;;;34.37;20.17;;;;;;;0.93;73.97;95028.69;5030922;28;20213;-80
2020/12/03 02:11:37;;;;;;;33.07;20.17;;;;;;;0.96;73.68;95017.50;5022244;28;20202;-80
2020/12/03 02:16:33;;;;;;;29.80;18.77;;;;;;;0.97;72.45;95019.06;5076911;23;20234;-80
2020/12/03 02:19:00;;;;;;;26.90;17.57;;;;;;;0.97;71.44;95022.41;5056488;28;20608;-79
2020/12/03 02:21:27;;;;;;;25.53;17.80;;;;;;;0.99;71.05;95017.19;5050983;28;20187;-80
2020/12/03 02:23:53;;;;;;;26.40;17.33;;;;;;;0.94;70.42;95024.41;5036921;28;20616;-80
2020/12/03 02:26:19;;;;;;;27.13;16.63;;;;;;;0.92;69.68;95022.00;5067197;28;20217;-80
2020/12/03 02:28:45;;;;;;;28.80;17.37;;;;;;;0.98;69.57;95018.13;5055713;28;20639;-80
2020/12/03 02:31:11;;;;;;;25.00;16.93;;;;;;;0.96;69.81;95012.41;5071888;28;20212;-80
2020/12/03 02:33:38;;;;;;;26.73;17.97;;;;;;;1.01;70.09;95008.53;5056158;28;20201;-80
2020/12/03 02:36:04;;;;;;;26.53;17.07;;;;;;;1.01;69.79;95007.72;5057611;28;20213;-80
2020/12/03 02:38:31;;;;;;;29.83;17.17;;;;;;;0.99;69.83;95004.53;5056621;28;20597;-80
2020/12/03 02:40:58;;;;;;;24.77;16.50;;;;;;;0.99;69.39;94996.94;5069541;28;20617;-80
2020/12/03 02:43:24;;;;;;;26.43;17.00;;;;;;;1.00;70.16;94993.47;5055682;28;20220;-80
2020/12/03 02:45:50;;;;;;;26.47;17.80;;;;;;;1.09;69.99;94992.69;5070434;28;20679;-80
2020/12/03 02:48:16;;;;;;;27.33;17.30;;;;;;;1.12;69.88;94987.34;5076308;28;20568;-79
2020/12/03 02:50:42;;;;;;;24.37;17.33;;;;;;;1.15;69.54;94991.34;5062740;28;20205;-80
2020/12/03 02:53:08;;;;;;;25.63;16.80;;;;;;;1.07;69.04;94989.47;5075324;28;20196;-80
2020/12/03 02:55:35;;;;;;;25.10;16.93;;;;;;;1.08;69.46;94988.53;5064257;28;20218;-80
2020/12/03 02:58:00;;;;;;;26.33;17.47;;;;;;;1.06;69.38;95000.53;5055420;28;20201;-80
2020/12/03 03:00:26;;;;;;;26.17;16.87;;;;;;;1.08;69.87;94991.06;5056645;28;20207;-80
2020/12/03 03:02:52;;;;;;;26.80;17.60;;;;;;;1.09;70.16;94994.41;5071302;28;20682;-79
2020/12/03 03:05:18;;;;;;;27.27;18.30;;;;;;;1.01;70.19;94998.41;5076568;28;20221;-80
2020/12/03 03:07:44;;;;;;;27.17;17.07;;;;;;;1.08;69.79;94995.34;5070481;28;20224;-80
2020/12/03 03:10:10;;;;;;;25.57;16.60;;;;;;;1.19;70.07;94992.66;5055617;28;20595;-80
2020/12/03 03:12:37;;;;;;;28.70;17.67;;;;;;;1.23;69.95;94984.66;5068792;28;20212;-80
2020/12/03 03:15:04;;;;;;;25.83;16.90;;;;;;;1.29;69.79;94971.44;5071738;28;20283;-80
2020/12/03 03:17:30;;;;;;;27.47;18.03;;;;;;;1.33;69.51;94962.66;5055810;28;20716;-80
2020/12/03 03:19:55;;;;;;;25.43;16.97;;;;;;;1.36;69.44;94967.41;5056744;28;20205;-80
2020/12/03 03:22:21;;;;;;;26.47;18.07;;;;;;;1.39;69.25;94968.91;5062655;28;20197;-79
2020/12/03 03:24:47;;;;;;;24.13;16.33;;;;;;;1.41;69.51;94964.50;5055198;28;20279;-79
2020/12/03 03:27:13;;;;;;;25.80;17.57;;;;;;;1.36;69.57;94969.97;5069039;28;20224;-79
2020/12/03 03:29:40;;;;;;;30.03;18.90;;;;;;;1.41;69.30;94961.16;5054793;28;20616;-79
2020/12/03 03:32:06;;;;;;;27.50;18.27;;;;;;;1.43;69.68;94951.69;5063318;28;20335;-80
2020/12/03 03:34:32;;;;;;;26.83;17.60;;;;;;;1.39;69.52;94939.25;5054306;28;20229;-79
2020/12/03 03:36:58;;;;;;;30.13;17.67;;;;;;;1.39;69.46;94936.72;5071555;28;20197;-79
2020/12/03 03:39:25;;;;;;;29.40;18.17;;;;;;;1.43;69.94;94936.47;5067114;28;20233;-80
2020/12/03 03:41:53;;;;;;;25.43;17.47;;;;;;;1.46;69.80;94946.34;5061128;28;20581;-80
2020/12/03 03:44:20;;;;;;;28.23;17.47;;;;;;;1.47;69.67;94953.81;5074940;28;20200;-79
2020/12/03 03:46:47;;;;;;;28.60;18.23;;;;;;;1.43;70.25;94951.69;5057331;28;20268;-79
2020/12/03 03:49:13;;;;;;;28.43;18.93;;;;;;;1.46;69.76;94951.41;5054481;28;20204;-79
2020/12/03 03:51:39;;;;;;;27.13;17.77;;;;;;;1.45;69.64;94944.72;5059910;28;20814;-80
2020/12/03 03:54:05;;;;;;;26.17;17.37;;;;;;;1.47;69.89;94946.19;5073761;28;20205;-79
2020/12/03 03:56:31;;;;;;;29.17;18.07;;;;;;;1.54;69.98;94933.78;5071795;28;20592;-79
2020/12/03 03:58:57;;;;;;;29.87;18.00;;;;;;;1.56;69.85;94931.88;5073849;28;20209;-79
2020/12/03 04:01:23;;;;;;;29.07;18.13;;;;;;;1.60;69.75;94918.78;5059418;28;20208;-80
2020/12/03 04:03:50;;;;;;;26.43;17.33;;;;;;;1.61;69.95;94906.91;5053917;28;20204;-80
2020/12/03 04:06:16;;;;;;;29.37;19.10;;;;;;;1.64;69.99;94899.81;5065684;28;20235;-80
2020/12/03 04:08:42;;;;;;;29.67;18.43;;;;;;;1.64;69.76;94901.56;5073004;28;20227;-80
2020/12/03 04:11:08;;;;;;;30.77;18.23;;;;;;;1.61;69.42;94895.03;5061438;28;20339;-79
2020/12/03 04:13:34;;;;;;;28.70;18.40;;;;;;;1.56;69.80;94898.91;5073916;28;20222;-79
2020/12/03 04:16:00;;;;;;;28.47;18.13;;;;;;;1.59;70.22;94894.34;5061805;28;20582;-78
2020/12/03 04:18:27;;;;;;;30.43;18.27;;;;;;;1.62;69.63;94890.75;5060568;28;20246;-78
2020/12/03 04:20:59;;;;;;;29.87;19.50;;;;;;;1.58;69.54;94889.41;5073468;28;20327;-80
2020/12/03 04:23:25;;;;;;;31.00;17.73;;;;;;;1.56;69.70;94881.94;5053676;28;20197;-79
2020/12/03 04:25:51;;;;;;;28.27;18.00;;;;;;;1.53;69.79;94884.78;5061991;28;20224;-80
2020/12/03 04:28:18;;;;;;;29.70;18.57;;;;;;;1.51;70.33;94883.31;5072840;28;20698;-80
2020/12/03 04:30:45;;;;;;;28.20;18.57;;;;;;;1.55;70.52;94892.22;5064833;28;20197;-79
2020/12/03 04:33:11;;;;;;;30.00;19.17;;;;;;;1.54;70.55;94888.13;5068261;28;20189;-80
2020/12/03 04:35:37;;;;;;;29.93;18.43;;;;;;;1.45;70.78;94894.81;5052921;28;20225;-80
2020/12/03 04:38:05;;;;;;;26.73;17.80;;;;;;;1.46;70.68;94888.00;5053238;28;20208;-77
2020/12/03 04:40:35;;;;;;;28.97;17.43;;;;;;;1.49;70.76;94892.81;5071429;28;20204;-80
2020/12/03 04:43:06;;;;;;;24.80;17.13;;;;;;;1.50;70.56;94887.59;5061091;28;20251;-79
2020/12/03 04:45:39;;;;;;;28.00;17.83;;;;;;;1.42;70.75;94886.66;5055560;28;20221;-80
2020/12/03 04:48:29;;;;;;;26.27;17.67;;;;;;;1.44;70.95;94885.59;5073352;28;20205;-79
2020/12/03 04:51:12;;;;;;;28.67;17.50;;;;;;;1.48;70.97;94881.06;5066536;28;20194;-80
2020/12/03 04:53:49;;;;;;;28.80;18.00;;;;;;;1.38;71.25;94883.59;5072779;28;20203;-79
2020/12/03 04:56:24;;;;;;;28.67;17.73;;;;;;;1.41;71.62;94874.94;5064292;28;20249;-80
2020/12/03 04:59:03;;;;;;;26.63;17.37;;;;;;;1.48;70.85;94864.09;5052468;28;20205;-79
2020/12/03 05:01:53;;;;;;;24.77;16.33;;;;;;;1.49;70.96;94858.09;5060331;28;20203;-81
2020/12/03 05:04:22;;;;;;;27.53;17.40;;;;;;;1.55;70.79;94859.25;5049851;28;20206;-80
2020/12/03 05:06:56;;;;;;;29.03;18.17;;;;;;;1.58;70.89;94859.78;5052292;28;20224;-80
2020/12/03 05:09:30;;;;;;;26.60;16.87;;;;;;;1.60;70.71;94852.03;5063406;28;20188;-80
2020/12/03 05:12:04;;;;;;;26.73;17.77;;;;;;;1.52;70.89;94854.47;5066158;28;20224;-80
2020/12/03 05:14:39;;;;;;;27.10;18.20;;;;;;;1.45;70.87;94855.97;5063545;28;20223;-80
2020/12/03 05:17:42;;;;;;;30.53;16.93;;;;;;;1.47;71.47;94842.22;5064121;28;20193;-80
2020/12/03 05:20:22;;;;;;;28.60;18.43;;;;;;;1.55;71.07;94841.50;5049577;28;20197;-79
2020/12/03 05:22:55;;;;;;;26.23;16.90;;;;;;;1.60;70.70;94837.63;5057869;28;20192;-80
2020/12/03 05:25:24;;;;;;;27.37;17.73;;;;;;;1.61;71.00;94838.41;5061713;28;20433;-80
2020/12/03 05:27:52;;;;;;;27.87;18.00;;;;;;;1.57;70.53;94845.50;5069231;28;20805;-79
2020/12/03 05:30:18;;;;;;;31.87;20.10;;;;;;;1.58;71.10;94856.44;5072984;28;20208;-80
2020/12/03 05:32:45;;;;;;;31.73;18.90;;;;;;;1.59;70.89;94860.59;5070855;28;20844;-80
2020/12/03 05:35:11;;;;;;;26.93;17.83;;;;;;;1.61;70.73;94868.84;5055749;28;20220;-80
2020/12/03 05:37:39;;;;;;;27.33;17.40;;;;;;;1.53;71.23;94879.72;5064061;28;20198;-80
2020/12/03 05:40:14;;;;;;;26.47;16.77;;;;;;;1.57;71.35;94881.00;5053383;28;20205;-79
2020/12/03 05:42:54;;;;;;;27.40;16.93;;;;;;;1.56;71.67;94865.94;5065492;28;20196;-77
2020/12/03 05:45:27;;;;;;;27.43;17.20;;;;;;;1.59;71.39;94858.84;5049040;28;20217;-78
2020/12/03 05:47:57;;;;;;;26.37;17.40;;;;;;;1.62;71.05;94856.03;5047909;28;20221;-79
2020/12/03 05:50:35;;;;;;;26.77;17.10;;;;;;;1.62;71.36;94845.88;5061058;28;20201;-79
2020/12/03 05:53:03;;;;;;;27.83;17.23;;;;;;;1.67;71.46;94845.47;5042272;28;20213;-78
2020/12/03 05:55:31;;;;;;;25.87;17.53;;;;;;;1.72;71.24;94848.41;5062483;28;20726;-79
2020/12/03 05:58:13;;;;;;;28.23;18.03;;;;;;;1.73;71.06;94850.75;5052501;28;20202;-79
2020/12/03 06:00:39;;;;;;;28.83;18.17;;;;;;;1.64;71.66;94851.63;5053354;28;20205;-79
2020/12/03 06:03:24;;;;;;;123.87;78.13;;;;;;;1.51;73.52;94845.28;5052446;28;20210;-78
2020/12/03 06:06:08;;;;;;;29.13;18.33;;;;;;;1.52;71.89;94852.75;5065197;28;20583;-79
2020/12/03 06:08:57;;;;;;;27.60;17.30;;;;;;;1.52;71.62;94847.69;5072707;28;20715;-79
2020/12/03 06:11:47;;;;;;;26.87;17.17;;;;;;;1.55;71.29;94851.66;5055343;28;20687;-79
2020/12/03 06:14:40;;;;;;;27.43;16.87;;;;;;;1.61;71.47;94862.03;5047482;28;20193;-78
2020/12/03 06:17:18;;;;;;;25.97;17.60;;;;;;;1.65;71.18;94870.19;5061858;28;20193;-78
2020/12/03 06:20:00;;;;;;;28.03;17.13;;;;;;;1.63;71.28;94860.16;5065154;28;20691;-79
2020/12/03 06:22:43;;;;;;;32.67;17.77;;;;;;;1.58;71.79;94864.06;5044728;28;20207;-79
2020/12/03 06:25:28;;;;;;;26.37;17.43;;;;;;;1.55;71.83;94859.25;5062852;28;20220;-78
2020/12/03 06:28:21;;;;;;;28.77;17.47;;;;;;;1.54;71.49;94850.06;5069425;28;20217;-78
2020/12/03 06:30:54;;;;;;;28.70;17.30;;;;;;;1.49;71.84;94842.88;5064768;28;20266;-78
2020/12/03 06:33:38;;;;;;;27.40;17.10;;;;;;;1.50;71.81;94844.47;5060755;28;20194;-78
2020/12/03 06:36:15;;;;;;;25.33;16.70;;;;;;;1.51;71.82;94846.06;5071045;28;20655;-79
2020/12/03 06:38:59;;;;;;;27.33;17.37;;;;;;;1.58;71.58;94851.38;5061257;28;20200;-77
2020/12/03 06:41:36;;;;;;;26.63;17.20;;;;;;;1.58;71.73;94854.72;5060172;28;20189;-78
2020/12/03 06:44:13;;;;;;;27.57;16.77;;;;;;;1.48;71.94;94866.63;5058026;28;20563;-78
2020/12/03 06:47:05;;;;;;;26.20;16.77;;;;;;;1.47;71.96;94870.13;5063013;28;20228;-78
2020/12/03 06:49:45;;;;;;;27.43;17.50;;;;;;;1.50;72.13;94866.50;5070599;28;20209;-77
2020/12/03 06:52:34;;;;;;;26.93;17.03;;;;;;;1.55;71.48;94871.94;5056031;28;20215;-79
2020/12/03 06:55:42;;;;;;;23.43;13.70;;;;;;;1.73;81.04;94873.59;5025692;28;20565;-77
2020/12/03 06:58:36;;;;;;;19.57;11.53;;;;;;;2.41;100.00;94860.53;5023090;28;20223;-76
2020/12/03 07:01:40;;;;;;;23.30;15.97;;;;;;;2.60;80.99;94864.69;5063642;28;20659;-78
2020/12/03 07:04:57;;;;;;;23.30;15.00;;;;;;;3.11;99.22;94869.06;5055166;28;20574;-77
2020/12/03 07:07:57;;;;;;;23.90;15.33;;;;;;;3.03;72.01;94853.75;5056737;28;20226;-79
2020/12/03 07:11:07;;;;;;;23.00;15.77;;;;;;;2.76;70.62;94844.47;5062174;28;20194;-79
2020/12/03 07:14:03;;;;;;;23.90;16.47;;;;;;;2.50;70.13;94847.00;5051231;28;20206;-79
2020/12/03 07:17:05;;;;;;;23.20;16.33;;;;;;;2.36;70.31;94847.47;5054713;28;20229;-79
2020/12/03 07:20:00;;;;;;;26.93;17.40;;;;;;;2.30;70.50;94848.88;5060697;28;20220;-79
2020/12/03 07:22:31;;;;;;;25.73;17.13;;;;;;;2.26;70.56;94845.00;5034542;28;20716;-79
2020/12/03 07:25:02;;;;;;;24.37;16.10;;;;;;;2.23;70.48;94845.28;5062491;28;20217;-77
2020/12/03 07:27:55;;;;;;;24.93;16.23;;;;;;;2.14;70.84;94832.66;5059075;28;20244;-79
2020/12/03 07:30:35;;;;;;;24.93;16.67;;;;;;;2.11;71.20;94833.75;5032578;28;20201;-78
2020/12/03 07:33:05;;;;;;;22.43;16.07;;;;;;;2.14;71.00;94838.53;5063087;28;20197;-80
2020/12/03 07:35:35;;;;;;;24.10;16.13;;;;;;;2.12;70.55;94847.25;5064464;28;20224;-80
2020/12/03 07:38:12;;;;;;;24.60;16.87;;;;;;;2.13;70.38;94851.34;5057676;28;20685;-77
2020/12/03 07:41:13;;;;;;;25.40;16.50;;;;;;;2.06;70.55;94854.50;5067640;28;20673;-80
2020/12/03 07:43:39;;;;;;;21.53;15.70;;;;;;;2.02;70.31;94855.72;5066487;28;20230;-79
2020/12/03 07:46:34;;;;;;;24.57;15.93;;;;;;;2.00;70.50;94854.25;5055903;28;20209;-79
2020/12/03 07:49:00;;;;;;;23.47;16.50;;;;;;;2.03;70.38;94851.44;5063143;28;20208;-80
2020/12/03 07:51:26;;;;;;;22.53;16.30;;;;;;;2.02;70.21;94850.63;5065999;28;20209;-79
2020/12/03 07:54:24;;;;;;;19.77;14.90;;;;;;;2.00;70.20;94849.97;5055046;28;20675;-79
2020/12/03 07:56:51;;;;;;;22.93;15.70;;;;;;;2.05;70.33;94842.75;5064859;28;20202;-79
2020/12/03 07:59:36;;;;;;;23.27;16.17;;;;;;;2.10;70.14;94849.94;5063179;28;20230;-78
2020/12/03 08:02:03;;;;;;;21.63;14.97;;;;;;;2.07;70.42;94850.22;5061134;28;20201;-79
2020/12/03 08:04:32;;;;;;;24.67;15.50;;;;;;;2.09;69.99;94843.25;5061448;28;20236;-78
2020/12/03 08:07:34;;;;;;;22.13;16.13;;;;;;;2.03;70.32;94846.34;5054330;28;20259;-79
2020/12/03 08:10:00;;;;;;;22.47;15.03;;;;;;;2.09;70.37;94843.25;4976969;28;20192;-79
2020/12/03 08:12:30;;;;;;;21.60;15.30;;;;;;;2.16;70.16;94840.91;4970576;28;20632;-77
2020/12/03 08:15:06;;;;;;;22.83;15.50;;;;;;;2.25;69.46;94832.47;5008309;28;20626;-78
2020/12/03 08:17:44;;;;;;;24.90;16.17;;;;;;;2.34;69.71;94819.69;5059844;28;20208;-78
2020/12/03 08:20:21;;;;;;;21.83;14.77;;;;;;;2.39;69.59;94825.13;5069024;28;20220;-79
2020/12/03 08:22:49;;;;;;;22.17;15.07;;;;;;;2.40;69.14;94823.38;5060060;28;20226;-78
2020/12/03 08:25:20;;;;;;;21.83;15.43;;;;;;;2.32;69.46;94829.19;5068844;28;20406;-79
2020/12/03 08:27:58;;;;;;;19.63;13.20;;;;;;;2.59;85.83;94820.69;5060227;28;20220;-77
2020/12/03 08:30:33;;;;;;;22.57;15.40;;;;;;;2.78;71.11;94817.19;5042563;28;20220;-79
2020/12/03 08:33:04;;;;;;;23.17;16.40;;;;;;;2.84;69.57;94823.44;5069434;28;20933;-78
2020/12/03 08:35:30;;;;;;;21.30;14.83;;;;;;;2.85;69.38;94815.66;5058105;28;20214;-78
2020/12/03 08:37:56;;;;;;;23.13;15.00;;;;;;;2.88;68.92;94819.66;5059648;28;20188;-77
2020/12/03 08:40:26;;;;;;;23.33;15.23;;;;;;;2.87;68.13;94818.84;5058459;28;20193;-78
2020/12/03 08:42:52;;;;;;;23.60;15.67;;;;;;;2.92;68.71;94814.09;5059462;28;20256;-78
2020/12/03 08:45:19;;;;;;;28.93;14.87;;;;;;;2.84;67.79;94821.69;5056453;28;20221;-79
2020/12/03 08:47:49;;;;;;;21.73;13.50;;;;;;;2.88;67.92;94807.75;5054676;28;20221;-78
2020/12/03 08:50:27;;;;;;;19.73;14.60;;;;;;;2.80;67.99;94810.22;5069767;28;20220;-77
2020/12/03 08:52:54;;;;;;;18.77;14.13;;;;;;;2.84;68.00;94810.72;5063269;28;20301;-79
2020/12/03 08:55:20;;;;;;;19.80;14.77;;;;;;;2.74;67.58;94803.97;5063596;28;20873;-79
2020/12/03 08:57:46;;;;;;;19.43;14.90;;;;;;;2.68;68.40;94796.97;5057554;28;20197;-78
2020/12/03 09:00:14;;;;;;;21.63;16.00;;;;;;;2.77;68.54;94802.88;5068974;28;20197;-78
2020/12/03 09:02:41;;;;;;;21.33;17.20;;;;;;;2.86;68.17;94798.66;5056411;28;20192;-78
2020/12/03 09:05:08;;;;;;;26.40;19.00;;;;;;;2.86;67.99;94796.91;5061512;28;20318;-79
2020/12/03 09:07:41;;;;;;;22.53;17.53;;;;;;;2.81;68.31;94798.31;5064671;28;20220;-78
2020/12/03 09:10:09;;;;;;;20.27;15.27;;;;;;;2.79;68.34;94793.38;5067983;28;20215;-78
2020/12/03 09:12:37;;;;;;;21.27;15.73;;;;;;;2.84;68.59;94796.28;5058396;28;20200;-78
2020/12/03 09:15:05;;;;;;;20.17;15.13;;;;;;;2.93;68.39;94787.72;5060484;28;20225;-78
2020/12/03 09:17:34;;;;;;;20.57;15.03;;;;;;;2.89;68.07;94783.88;5065754;28;20208;-79
2020/12/03 09:20:03;;;;;;;18.47;14.33;;;;;;;2.77;67.76;94777.47;5055754;28;20269;-78
2020/12/03 09:22:30;;;;;;;22.60;15.80;;;;;;;2.69;68.22;94792.66;5068202;28;20198;-79
2020/12/03 09:24:57;;;;;;;22.73;14.70;;;;;;;2.73;68.65;94786.31;5061673;28;20251;-77
2020/12/03 09:27:24;;;;;;;21.43;15.33;;;;;;;2.85;68.74;94782.63;5063233;28;20224;-78
2020/12/03 09:29:53;;;;;;;20.93;16.33;;;;;;;2.97;68.20;94783.94;5051506;28;20208;-79
2020/12/03 09:32:21;;;;;;;19.83;15.33;;;;;;;2.95;67.91;94782.50;5045375;28;20196;-79
2020/12/03 09:34:49;;;;;;;20.10;15.90;;;;;;;2.98;68.11;94777.13;5059180;28;20283;-78
2020/12/03 09:37:15;;;;;;;19.00;13.90;;;;;;;2.98;67.80;94772.84;5054892;28;20194;-78
2020/12/03 09:39:41;;;;;;;20.73;15.10;;;;;;;2.99;67.83;94779.50;5054225;28;20209;-78
2020/12/03 09:42:13;;;;;;;18.20;13.80;;;;;;;2.97;67.87;94770.44;5054044;28;20200;-79
2020/12/03 09:44:42;;;;;;;18.77;13.97;;;;;;;2.93;68.06;94776.75;5063932;28;20225;-79
2020/12/03 09:47:13;;;;;;;17.53;13.57;;;;;;;2.90;68.09;94761.81;5051384;28;20247;-80
2020/12/03 09:49:41;;;;;;;17.50;13.77;;;;;;;2.86;68.40;94751.16;5058137;28;20198;-77
2020/12/03 09:52:10;;;;;;;18.97;14.30;;;;;;;2.96;67.84;94756.13;5065147;28;20225;-78
2020/12/03 09:54:36;;;;;;;19.33;14.13;;;;;;;2.95;67.71;94757.88;5060901;28;21134;-79
2020/12/03 09:57:04;;;;;;;18.93;14.13;;;;;;;3.02;67.91;94753.78;5055821;28;20217;-79
2020/12/03 09:59:31;;;;;;;18.40;13.37;;;;;;;3.05;67.50;94752.69;5057956;28;20216;-80
2020/12/03 10:02:19;;;;;;;17.33;14.47;;;;;;;3.09;67.46;94747.13;5055566;28;20201;-77
2020/12/03 10:05:12;;;;;;;18.00;13.70;;;;;;;3.15;67.18;94742.41;5047080;28;20308;-79
2020/12/03 10:08:03;;;;;;;18.93;14.50;;;;;;;3.07;67.45;94731.25;5057345;28;20216;-78
2020/12/03 10:10:44;;;;;;;21.87;14.83;;;;;;;3.12;67.35;94725.69;5052124;28;20197;-78
2020/12/03 10:13:25;;;;;;;19.27;14.70;;;;;;;3.13;67.54;94728.09;5059239;28;20197;-80
2020/12/03 10:16:02;;;;;;;18.90;14.00;;;;;;;3.17;67.59;94705.69;5059822;28;20216;-79
2020/12/03 10:18:40;;;;;;;18.13;13.77;;;;;;;3.15;67.16;94705.06;5056370;28;20211;-77
2020/12/03 10:21:09;;;;;;;19.00;13.87;;;;;;;3.21;67.74;94706.19;5066627;28;20200;-77
2020/12/03 10:23:42;;;;;;;18.63;14.53;;;;;;;3.07;67.41;94705.84;5058564;28;20197;-78
2020/12/03 10:26:17;;;;;;;16.10;13.57;;;;;;;3.06;67.78;94693.28;5070393;28;20225;-78
2020/12/03 10:28:52;;;;;;;24.07;14.87;;;;;;;3.20;67.97;94692.69;5062622;28;20204;-78
2020/12/03 10:31:24;;;;;;;18.67;14.00;;;;;;;3.32;67.60;94683.03;5061496;28;20296;-77
2020/12/03 10:36:55;;;;;;;19.63;13.33;;;;;;;3.42;66.45;94664.16;5061509;28;20208;-77
2020/12/03 10:39:40;;;;;;;17.30;13.63;;;;;;;3.46;66.30;94657.78;5058090;28;20189;-78
2020/12/03 10:42:13;;;;;;;17.47;13.97;;;;;;;3.50;66.37;94650.63;5066127;28;20211;-77
2020/12/03 10:44:42;;;;;;;17.20;13.50;;;;;;;3.54;66.37;94639.19;5059975;28;20220;-78
2020/12/03 10:47:14;;;;;;;22.03;13.70;;;;;;;3.57;65.60;94633.00;5063639;28;20225;-78
2020/12/03 10:49:45;;;;;;;16.70;13.20;;;;;;;3.65;66.31;94640.66;5068468;28;20242;-79
2020/12/03 10:52:14;;;;;;;17.27;13.90;;;;;;;3.68;65.74;94633.47;5051623;28;20202;-77
2020/12/03 10:54:41;;;;;;;17.90;13.43;;;;;;;3.77;65.45;94626.66;5062338;28;20216;-77
2020/12/03 10:57:18;;;;;;;18.40;12.93;;;;;;;3.82;64.71;94619.34;5053077;28;20208;-79
2020/12/03 10:59:44;;;;;;;19.10;12.73;;;;;;;3.80;64.36;94628.88;5054205;28;20280;-78
2020/12/03 11:02:40;;;;;;;16.63;13.03;;;;;;;3.92;64.36;94612.34;5052478;28;20189;-78
2020/12/03 11:05:08;;;;;;;19.53;13.73;;;;;;;4.00;63.98;94609.00;5007028;28;20232;-78
2020/12/03 11:07:35;;;;;;;20.53;14.50;;;;;;;4.06;63.96;94593.84;5059881;28;20248;-78
2020/12/03 11:10:07;;;;;;;14.20;12.27;;;;;;;4.13;63.65;94604.19;5055452;28;20202;-78
2020/12/03 11:12:33;;;;;;;16.03;12.90;;;;;;;4.05;63.22;94592.25;5053711;28;20204;-78
2020/12/03 11:15:01;;;;;;;15.60;12.43;;;;;;;4.04;63.06;94583.03;5052624;28;20229;-78
2020/12/03 11:17:53;;;;;;;16.70;13.20;;;;;;;4.04;63.04;94572.84;5053819;28;20212;-78
2020/12/03 11:20:21;;;;;;;15.73;12.20;;;;;;;4.16;62.95;94578.41;5040103;28;20201;-77
2020/12/03 11:23:06;;;;;;;15.77;11.73;;;;;;;4.27;62.18;94572.16;5053384;28;20201;-78
2020/12/03 11:25:33;;;;;;;11.83;10.10;;;;;;;4.93;76.06;94561.59;5050941;28;20222;-76
2020/12/03 11:28:09;;;;;;;13.00;10.93;;;;;;;5.38;62.41;94555.75;5052273;28;20218;-78
2020/12/03 11:30:35;;;;;;;12.87;10.60;;;;;;;5.38;58.35;94549.84;5053215;28;20197;-78
2020/12/03 11:33:02;;;;;;;13.80;11.57;;;;;;;5.16;58.66;94544.56;5052847;28;20208;-78
2020/12/03 11:35:30;;;;;;;13.47;11.60;;;;;;;5.19;59.10;94536.59;5053446;28;20227;-79
2020/12/03 11:38:00;;;;;;;15.37;12.37;;;;;;;5.11;59.43;94533.28;5052851;28;20232;-77
2020/12/03 11:40:33;;;;;;;15.23;12.57;;;;;;;4.92;59.22;94546.44;5053295;28;20221;-79
2020/12/03 11:46:05;;;;;;;16.60;12.47;;;;;;;4.99;59.14;94530.31;5050905;28;20221;-78
2020/12/03 11:48:37;;;;;;;15.93;11.83;;;;;;;5.13;58.79;94526.25;5039099;28;20221;-76
2020/12/03 11:51:03;;;;;;;18.77;12.63;;;;;;;5.02;58.68;94518.97;5062047;28;20231;-78
2020/12/03 11:53:31;;;;;;;16.57;12.03;;;;;;;4.93;58.40;94517.44;5052257;28;20205;-77
2020/12/03 11:55:56;;;;;;;14.17;11.80;;;;;;;5.15;59.93;94520.03;5052507;28;20225;-78